LFLC/CFE METAR and TAF weather

Enter ICAO airport designator
Station Type Date Time Source
LFLC METAR 2020/07/12 00:30 UTC NOAA

LFLC 120030Z AUTO 00000KT CAVOK 15/06 Q1022 NOSIG


Station Type Date Time Source
LFLC Decoded METAR 2020/07/12 00:30 UTC NOAA

Clermont-Ferrand, France (LFLC) 45-47N 003-10E 330M
Jul 11, 2020 - 08:30 PM EDT / 2020.07.12 0030 UTC
Wind: Calm:0
Visibility: greater than 7 mile(s):0
Temperature: 59 F (15 C)
Dew Point: 42 F (6 C)
Relative Humidity: 54%
Pressure (altimeter): 30.18 in. Hg (1022 hPa)
ob: LFLC 120030Z AUTO 00000KT CAVOK 15/06 Q1022 NOSIG
cycle: 0

Station Type Date Time Source
LFLC TAF 2020/07/11 21:26 UTC NOAA

TAF LFLC 112000Z 1121/1221 01006KT CAVOK

Example: see airport list